Time;durP1;ratioP1;P1;durP2;ratioP2;P2;SDS_P1;SDS_P2;PMS_P1;PMS_P2;Temp;Humidity;BMP_temperature;BMP_pressure;BME280_temperature;BME280_humidity;BME280_pressure;Samples;Min_cycle;Max_cycle;Signal;HPM_P1;HPM_P2
2022/04/25 00:02:45;;;;;;;0.40;0.40;;;;;;;7.47;80.75;96459.03;6226484;28;20769;-42
2022/04/25 00:05:48;;;;;;;0.40;0.30;;;;;;;7.48;80.98;96465.94;6227794;28;20255;-41
2022/04/25 00:08:50;;;;;;;0.90;0.37;;;;;;;7.51;80.34;96454.31;6227304;28;20722;-43
2022/04/25 00:11:52;;;;;;;0.57;0.20;;;;;;;7.50;80.33;96463.16;6224180;28;20240;-42
2022/04/25 00:14:54;;;;;;;0.30;0.30;;;;;;;7.46;80.36;96454.72;6226990;28;20712;-43
2022/04/25 00:17:56;;;;;;;0.50;0.30;;;;;;;7.41;80.80;96463.00;6227183;28;20245;-42
2022/04/25 00:21:00;;;;;;;1.97;0.30;;;;;;;7.25;80.83;96460.06;6204288;28;20389;-42
2022/04/25 00:24:02;;;;;;;1.73;0.30;;;;;;;7.17;81.53;96466.94;6203429;28;20384;-42
2022/04/25 00:27:05;;;;;;;0.23;0.23;;;;;;;7.17;81.70;96470.38;6228607;28;20218;-42
2022/04/25 00:30:07;;;;;;;0.20;0.20;;;;;;;7.18;81.77;96465.97;6227480;28;20720;-42
2022/04/25 00:33:10;;;;;;;0.30;0.30;;;;;;;7.22;80.87;96457.69;6227614;28;20305;-42
2022/04/25 00:36:12;;;;;;;0.10;0.10;;;;;;;7.34;79.97;96443.50;6227553;28;20212;-43
2022/04/25 00:39:14;;;;;;;0.20;0.20;;;;;;;7.45;78.97;96454.88;6227955;28;20224;-42
2022/04/25 00:42:16;;;;;;;0.10;0.10;;;;;;;7.44;79.17;96461.06;6228119;28;20222;-41
2022/04/25 00:45:18;;;;;;;0.10;0.10;;;;;;;7.41;79.26;96455.13;6227665;28;20673;-44
2022/04/25 00:48:39;;;;;;;0.10;0.10;;;;;;;7.51;78.60;96459.56;6229703;28;20227;-42
2022/04/25 00:51:42;;;;;;;0.30;0.17;;;;;;;7.52;78.75;96455.97;6232932;28;20220;-42
2022/04/25 00:54:44;;;;;;;0.20;0.20;;;;;;;7.41;78.72;96457.75;6219567;28;20659;-41
2022/04/25 00:57:47;;;;;;;1.03;0.30;;;;;;;7.32;78.89;96462.97;6225762;28;20235;-42
2022/04/25 01:00:49;;;;;;;0.40;0.20;;;;;;;7.32;79.30;96463.78;6208176;28;20762;-41
2022/04/25 01:03:51;;;;;;;1.50;0.20;;;;;;;7.40;79.28;96452.63;6190855;28;20698;-42
2022/04/25 01:06:54;;;;;;;0.67;0.20;;;;;;;7.66;77.55;96455.59;6198300;28;20264;-41
2022/04/25 01:09:56;;;;;;;0.20;0.20;;;;;;;7.91;76.84;96457.72;6206929;28;20236;-42
2022/04/25 01:12:58;;;;;;;0.10;0.10;;;;;;;8.06;76.43;96463.41;6208008;28;20895;-42
2022/04/25 01:16:00;;;;;;;0.27;0.27;;;;;;;8.22;75.37;96465.47;6207292;28;20249;-41
2022/04/25 01:19:02;;;;;;;0.53;0.20;;;;;;;8.18;75.84;96464.09;6207143;28;20263;-42
2022/04/25 01:22:10;;;;;;;0.17;0.17;;;;;;;8.23;75.60;96459.25;6214880;28;20262;-42
2022/04/25 01:28:33;;;;;;;0.30;0.30;;;;;;;8.02;76.93;96469.88;6219081;28;20327;-43
2022/04/25 01:31:35;;;;;;;0.30;0.30;;;;;;;7.83;77.75;96462.81;6207536;28;20780;-42
2022/04/25 01:34:38;;;;;;;0.43;0.30;;;;;;;7.69;78.69;96452.69;6207663;28;20785;-42
2022/04/25 01:37:40;;;;;;;0.33;0.30;;;;;;;7.58;79.58;96451.03;6207496;28;20315;-42
2022/04/25 01:40:42;;;;;;;0.10;0.10;;;;;;;7.47;80.47;96455.56;6207320;28;20272;-42
2022/04/25 01:43:45;;;;;;;0.57;0.20;;;;;;;7.35;80.95;96445.16;6208065;28;20237;-43
2022/04/25 01:46:47;;;;;;;0.20;0.20;;;;;;;7.24;81.29;96445.28;6206154;28;20249;-42
2022/04/25 01:49:49;;;;;;;2.73;0.20;;;;;;;7.12;81.49;96441.06;6207275;28;20774;-41
2022/04/25 01:52:51;;;;;;;0.40;0.20;;;;;;;7.02;82.10;96442.81;6209305;28;20298;-44
2022/04/25 01:55:53;;;;;;;0.20;0.20;;;;;;;6.93;81.84;96451.47;6211650;28;20264;-42
2022/04/25 01:58:55;;;;;;;0.20;0.20;;;;;;;6.88;82.24;96445.81;6206023;28;20287;-42
2022/04/25 02:01:59;;;;;;;0.20;0.20;;;;;;;6.84;82.36;96453.09;6206695;28;20247;-41
2022/04/25 02:05:04;;;;;;;0.10;0.10;;;;;;;6.84;82.02;96445.25;6196104;28;20234;-41
2022/04/25 02:08:06;;;;;;;0.20;0.20;;;;;;;6.85;82.28;96443.44;6205969;28;20231;-43
2022/04/25 02:11:20;;;;;;;0.53;0.20;;;;;;;6.86;82.50;96445.13;6207049;28;20269;-42
2022/04/25 02:14:23;;;;;;;1.80;0.20;;;;;;;6.84;82.39;96449.66;6183328;28;20229;-41
2022/04/25 02:17:25;;;;;;;0.10;0.10;;;;;;;6.81;82.83;96455.16;6208711;28;20229;-42
2022/04/25 02:20:27;;;;;;;0.10;0.10;;;;;;;6.81;82.97;96453.34;6208590;28;20305;-43
2022/04/25 02:23:29;;;;;;;0.10;0.10;;;;;;;6.82;82.81;96451.56;6215937;28;20274;-43
2022/04/25 02:26:32;;;;;;;0.10;0.10;;;;;;;6.83;83.39;96454.06;6214429;28;20229;-43
2022/04/25 02:29:38;;;;;;;1.33;0.20;;;;;;;6.89;83.03;96456.16;6206017;28;20238;-44
2022/04/25 02:32:42;;;;;;;0.20;0.20;;;;;;;6.89;83.25;96461.41;6206694;28;20234;-42
2022/04/25 02:35:44;;;;;;;0.20;0.20;;;;;;;6.92;83.36;96457.69;6206264;28;20707;-41
2022/04/25 02:38:46;;;;;;;0.37;0.20;;;;;;;6.94;83.17;96461.03;6205246;28;20236;-42
2022/04/25 02:41:49;;;;;;;0.73;0.20;;;;;;;6.98;83.30;96463.25;6204991;28;20692;-42
2022/04/25 02:44:51;;;;;;;0.10;0.10;;;;;;;7.08;83.15;96468.56;6205458;28;20590;-41
2022/04/25 02:47:53;;;;;;;0.30;0.20;;;;;;;7.25;82.59;96461.84;6205896;28;20291;-42
2022/04/25 02:50:55;;;;;;;0.10;0.10;;;;;;;7.55;80.72;96461.81;6203747;28;20333;-42
2022/04/25 02:53:57;;;;;;;0.10;0.10;;;;;;;7.81;79.41;96461.28;6216600;28;20240;-42
2022/04/25 02:57:00;;;;;;;0.50;0.30;;;;;;;7.91;78.95;96470.00;6216949;28;20318;-41
2022/04/25 03:00:04;;;;;;;0.20;0.20;;;;;;;8.06;77.34;96469.50;6204616;28;20236;-42
2022/04/25 03:03:06;;;;;;;0.10;0.10;;;;;;;8.22;77.30;96475.97;6231206;28;20211;-42
2022/04/25 03:06:09;;;;;;;0.10;0.10;;;;;;;8.33;76.02;96475.88;6228956;28;20985;-41
2022/04/25 03:09:11;;;;;;;0.10;0.10;;;;;;;8.40;75.39;96479.59;6229653;28;20239;-43
2022/04/25 03:12:13;;;;;;;0.20;0.20;;;;;;;8.48;74.42;96477.94;6223796;28;20244;-41
2022/04/25 03:15:15;;;;;;;0.10;0.10;;;;;;;8.51;74.65;96482.94;6227196;28;20689;-41
2022/04/25 03:18:19;;;;;;;0.10;0.10;;;;;;;8.46;75.97;96482.53;6205433;28;20223;-41
2022/04/25 03:21:21;;;;;;;0.10;0.10;;;;;;;8.36;76.69;96492.22;6204463;28;20269;-43
2022/04/25 03:24:23;;;;;;;0.27;0.10;;;;;;;8.35;76.64;96487.09;6205634;28;20246;-42
2022/04/25 03:27:25;;;;;;;0.10;0.10;;;;;;;8.41;75.90;96487.34;6205237;28;20232;-42
2022/04/25 03:30:28;;;;;;;0.10;0.10;;;;;;;8.43;76.26;96490.69;6204358;28;20234;-42
2022/04/25 03:33:31;;;;;;;0.10;0.10;;;;;;;8.45;75.55;96488.75;6205277;28;20308;-42
2022/04/25 03:36:33;;;;;;;0.20;0.20;;;;;;;8.50;75.56;96480.44;6204350;28;20317;-41
2022/04/25 03:39:35;;;;;;;0.20;0.20;;;;;;;8.52;75.99;96478.50;6204823;28;20604;-42
2022/04/25 03:42:38;;;;;;;0.20;0.20;;;;;;;8.47;76.10;96486.00;6204403;28;20708;-42
2022/04/25 03:45:41;;;;;;;0.20;0.10;;;;;;;8.39;76.74;96481.41;6204194;28;20316;-42
2022/04/25 03:48:44;;;;;;;0.47;0.17;;;;;;;8.39;76.74;96476.16;6204407;28;20266;-41
2022/04/25 03:51:46;;;;;;;0.20;0.10;;;;;;;8.41;76.55;96479.47;6204050;28;20714;-43
2022/04/25 03:58:11;;;;;;;0.73;0.13;;;;;;;8.35;78.10;96481.84;6204183;28;21003;-42
2022/04/25 04:01:13;;;;;;;0.10;0.10;;;;;;;8.29;78.51;96485.81;6204200;28;20228;-43
2022/04/25 04:04:15;;;;;;;0.17;0.17;;;;;;;8.28;79.50;96478.06;6209386;28;20773;-41
2022/04/25 04:07:17;;;;;;;0.10;0.10;;;;;;;8.28;78.73;96493.84;6208303;28;20591;-42
2022/04/25 04:10:20;;;;;;;0.37;0.20;;;;;;;8.30;79.06;96487.47;6206475;28;20236;-42
2022/04/25 04:13:24;;;;;;;0.23;0.10;;;;;;;8.32;79.39;96490.00;6203707;28;20241;-44
2022/04/25 04:16:26;;;;;;;0.20;0.20;;;;;;;8.31;79.41;96491.78;6203720;28;20239;-42
2022/04/25 04:19:28;;;;;;;0.10;0.10;;;;;;;8.40;78.81;96490.13;6203611;28;20610;-42
2022/04/25 04:22:32;;;;;;;0.20;0.20;;;;;;;8.48;78.73;96491.09;6205660;28;20258;-43
2022/04/25 04:25:35;;;;;;;0.57;0.10;;;;;;;8.51;78.27;96496.06;6189991;28;20288;-42
2022/04/25 04:28:37;;;;;;;0.37;0.20;;;;;;;8.59;78.21;96497.16;6207833;28;20751;-44
2022/04/25 04:31:39;;;;;;;0.20;0.20;;;;;;;8.75;78.94;96511.41;6208081;28;20240;-43
2022/04/25 04:34:41;;;;;;;0.10;0.10;;;;;;;8.86;78.45;96510.44;6208040;28;20242;-42
2022/04/25 04:37:43;;;;;;;0.20;0.20;;;;;;;8.96;77.79;96507.78;6209182;28;20247;-42
2022/04/25 04:40:45;;;;;;;0.30;0.20;;;;;;;9.05;77.03;96504.31;6208512;28;20231;-42
2022/04/25 04:43:47;;;;;;;0.10;0.10;;;;;;;9.10;75.55;96520.47;6208330;28;20234;-43
2022/04/25 04:46:49;;;;;;;0.20;0.20;;;;;;;9.13;75.72;96515.78;6208369;28;20243;-41
2022/04/25 04:49:55;;;;;;;1.23;0.20;;;;;;;9.18;76.38;96524.06;6207547;28;20227;-43
2022/04/25 04:52:59;;;;;;;0.80;0.30;;;;;;;9.22;75.51;96520.19;6208511;28;20220;-44
2022/04/25 04:56:01;;;;;;;0.20;0.20;;;;;;;9.26;75.40;96531.25;6208526;28;20232;-43
2022/04/25 04:59:03;;;;;;;0.60;0.30;;;;;;;9.30;76.46;96537.88;6207125;28;20830;-42
2022/04/25 05:02:06;;;;;;;0.30;0.20;;;;;;;9.39;75.82;96526.47;6207304;28;20696;-42
2022/04/25 05:05:09;;;;;;;0.30;0.30;;;;;;;9.42;75.75;96531.47;6207737;28;20386;-44
2022/04/25 05:08:11;;;;;;;0.83;0.30;;;;;;;9.44;75.76;96532.16;6207453;28;20238;-43
2022/04/25 05:11:13;;;;;;;0.30;0.30;;;;;;;9.44;75.73;96534.78;6208071;28;20286;-44
2022/04/25 05:14:15;;;;;;;0.30;0.30;;;;;;;9.47;75.88;96537.16;6207494;28;20228;-44
2022/04/25 05:17:17;;;;;;;0.20;0.20;;;;;;;9.50;75.50;96541.28;6208964;28;20719;-42
2022/04/25 05:20:25;;;;;;;0.33;0.33;;;;;;;9.53;75.57;96539.19;6207126;28;20267;-44
2022/04/25 05:23:28;;;;;;;0.47;0.30;;;;;;;9.58;75.24;96541.41;6208636;28;20233;-44
2022/04/25 05:26:30;;;;;;;0.57;0.50;;;;;;;9.61;74.53;96547.19;6227070;28;20247;-43
2022/04/25 05:29:32;;;;;;;0.40;0.40;;;;;;;9.65;75.49;96550.38;6231261;28;20619;-43
2022/04/25 05:32:49;;;;;;;0.40;0.30;;;;;;;9.69;76.17;96553.53;6232539;28;20246;-43
2022/04/25 05:35:52;;;;;;;0.50;0.40;;;;;;;9.76;75.63;96567.81;6230066;28;20820;-44
2022/04/25 05:38:54;;;;;;;0.40;0.40;;;;;;;9.82;76.00;96575.13;6231771;28;20316;-42
2022/04/25 05:41:56;;;;;;;0.53;0.53;;;;;;;9.84;76.63;96571.38;6230668;28;20610;-45
2022/04/25 05:45:00;;;;;;;0.57;0.57;;;;;;;9.92;76.24;96575.91;6232006;28;20637;-43
2022/04/25 05:51:58;;;;;;;0.40;0.40;;;;;;;10.03;75.43;96577.53;6230730;28;20342;-43
2022/04/25 05:54:49;;;;;;;0.40;0.40;;;;;;;10.16;75.55;96594.66;6218119;28;20707;-43
2022/04/25 05:57:51;;;;;;;0.70;0.50;;;;;;;10.23;75.07;96587.00;6222278;28;20232;-43
2022/04/25 06:00:59;;;;;;;0.40;0.40;;;;;;;10.26;74.31;96602.56;6206857;28;20612;-42
2022/04/25 06:04:02;;;;;;;0.77;0.50;;;;;;;10.22;74.15;96606.44;6206608;28;20645;-42
2022/04/25 06:07:05;;;;;;;0.20;0.20;;;;;;;10.26;74.69;96606.03;6205280;28;20228;-42
2022/04/25 06:10:08;;;;;;;0.30;0.30;;;;;;;10.35;74.84;96597.22;6206413;28;20233;-43
2022/04/25 06:13:16;;;;;;;0.50;0.50;;;;;;;10.44;74.21;96610.47;6205907;28;20742;-42
2022/04/25 06:16:18;;;;;;;1.93;0.50;;;;;;;10.52;74.23;96608.75;6204610;28;20255;-44
2022/04/25 06:19:20;;;;;;;1.23;0.53;;;;;;;10.47;72.66;96616.31;6205501;28;20224;-43
2022/04/25 06:22:22;;;;;;;0.97;0.80;;;;;;;10.43;73.53;96612.28;6206258;28;20650;-42
2022/04/25 06:25:27;;;;;;;2.20;0.63;;;;;;;10.43;73.44;96616.75;6229082;28;20239;-42
2022/04/25 06:28:29;;;;;;;0.60;0.60;;;;;;;10.43;74.01;96620.22;6204802;28;20781;-42
2022/04/25 06:31:31;;;;;;;0.50;0.50;;;;;;;10.41;73.85;96619.50;6205937;28;20236;-43
2022/04/25 06:34:34;;;;;;;0.47;0.40;;;;;;;10.36;73.38;96634.97;6206096;28;20319;-41
2022/04/25 06:37:36;;;;;;;0.70;0.70;;;;;;;10.28;74.04;96640.97;6205304;28;20663;-43
2022/04/25 06:40:38;;;;;;;0.50;0.50;;;;;;;10.22;74.20;96633.66;6205294;28;20244;-43
2022/04/25 06:43:41;;;;;;;1.23;0.70;;;;;;;10.17;74.29;96630.59;6207231;28;20220;-45
2022/04/25 06:46:43;;;;;;;0.50;0.50;;;;;;;10.14;73.84;96637.97;6204813;28;20236;-43
2022/04/25 06:49:45;;;;;;;0.70;0.70;;;;;;;10.18;72.72;96629.63;6204891;28;20294;-43
2022/04/25 06:52:47;;;;;;;0.60;0.60;;;;;;;10.29;73.06;96636.50;6207889;28;20232;-43
2022/04/25 06:55:50;;;;;;;0.90;0.57;;;;;;;10.33;72.41;96630.81;6208261;28;20242;-45
2022/04/25 06:58:52;;;;;;;1.30;0.73;;;;;;;10.59;71.38;96635.38;6203591;28;20236;-42
2022/04/25 07:01:54;;;;;;;0.80;0.80;;;;;;;10.87;70.78;96634.34;6207457;28;20241;-41
2022/04/25 07:04:56;;;;;;;0.90;0.70;;;;;;;11.52;69.31;96629.59;6209659;28;20237;-42
2022/04/25 07:07:58;;;;;;;0.60;0.60;;;;;;;12.01;67.60;96632.56;6208807;28;20659;-43
2022/04/25 07:11:00;;;;;;;0.70;0.70;;;;;;;12.56;66.38;96628.50;6206284;28;20244;-41
2022/04/25 07:14:03;;;;;;;0.53;0.53;;;;;;;12.67;65.50;96626.53;6207141;28;20655;-42
2022/04/25 07:17:05;;;;;;;0.53;0.53;;;;;;;12.50;65.43;96637.06;6207219;28;20224;-42
2022/04/25 07:20:08;;;;;;;0.83;0.83;;;;;;;12.36;66.37;96635.03;6203924;28;20606;-42
2022/04/25 07:29:52;;;;;;;2.03;1.10;;;;;;;11.34;67.77;96640.19;6204800;28;20249;-43
2022/04/25 07:32:55;;;;;;;1.30;1.20;;;;;;;11.31;68.17;96635.22;6204579;28;20244;-42
2022/04/25 07:35:57;;;;;;;0.80;0.80;;;;;;;11.45;68.29;96645.25;6203846;28;20237;-42
2022/04/25 07:38:59;;;;;;;1.50;1.37;;;;;;;11.98;66.59;96641.63;6204448;28;20237;-42
2022/04/25 07:42:01;;;;;;;1.10;1.00;;;;;;;12.62;63.51;96634.94;6227173;28;20216;-43
2022/04/25 07:45:04;;;;;;;0.70;0.70;;;;;;;12.99;62.69;96634.53;6227603;28;20215;-42
2022/04/25 07:48:07;;;;;;;1.00;0.90;;;;;;;12.80;62.34;96643.59;6226281;28;20205;-42
2022/04/25 07:51:09;;;;;;;0.80;0.80;;;;;;;12.89;62.41;96644.44;6214217;28;20240;-43
2022/04/25 07:54:12;;;;;;;0.80;0.70;;;;;;;13.51;59.70;96660.75;6214997;28;20571;-42
2022/04/25 07:57:15;;;;;;;0.80;0.80;;;;;;;13.75;58.30;96660.75;6226136;28;20222;-42
2022/04/25 08:00:17;;;;;;;0.60;0.60;;;;;;;14.33;57.83;96670.22;6204141;28;20235;-41
2022/04/25 08:03:19;;;;;;;0.50;0.50;;;;;;;14.21;57.80;96668.94;6204463;28;20366;-42
2022/04/25 08:06:22;;;;;;;0.50;0.50;;;;;;;14.07;57.32;96681.09;6203660;28;20224;-43
2022/04/25 08:09:25;;;;;;;0.80;0.80;;;;;;;14.84;55.89;96698.09;6201814;28;20223;-42
2022/04/25 08:19:09;;;;;;;1.13;0.60;;;;;;;15.14;53.92;96693.78;6203090;28;20620;-42
2022/04/25 08:22:11;;;;;;;0.53;0.53;;;;;;;15.76;51.97;96712.31;6218597;28;20326;-42
2022/04/25 08:25:15;;;;;;;0.60;0.50;;;;;;;15.56;52.61;96711.97;6202823;28;20240;-42
2022/04/25 08:28:19;;;;;;;0.80;0.67;;;;;;;15.97;52.41;96714.28;6205084;28;20708;-42
2022/04/25 08:31:22;;;;;;;0.97;0.90;;;;;;;15.91;53.00;96729.13;6201681;28;20708;-41
2022/04/25 08:34:24;;;;;;;0.93;0.70;;;;;;;15.65;53.43;96726.03;6203309;28;20236;-44
2022/04/25 08:37:27;;;;;;;0.63;0.63;;;;;;;15.48;53.02;96726.09;6203266;28;20398;-42
2022/04/25 08:40:39;;;;;;;0.80;0.70;;;;;;;15.86;52.46;96750.13;6202544;28;20224;-42
2022/04/25 08:43:42;;;;;;;0.60;0.60;;;;;;;15.85;52.11;96728.03;6204477;28;20387;-42
2022/04/25 08:46:49;;;;;;;0.60;0.60;;;;;;;16.44;51.40;96729.94;6203142;28;20371;-43
2022/04/25 08:49:51;;;;;;;0.60;0.60;;;;;;;16.38;50.67;96728.00;6203552;28;20294;-42
2022/04/25 08:52:54;;;;;;;0.53;0.53;;;;;;;17.01;49.94;96737.28;6204033;28;20314;-44
2022/04/25 08:55:57;;;;;;;1.03;0.47;;;;;;;17.59;49.10;96734.47;6203498;28;20785;-42
2022/04/25 08:59:00;;;;;;;0.80;0.70;;;;;;;17.67;47.35;96722.88;6203225;28;20725;-42
2022/04/25 09:02:03;;;;;;;0.63;0.60;;;;;;;17.15;48.33;96728.47;6202474;28;20730;-42
2022/04/25 09:05:06;;;;;;;1.10;0.60;;;;;;;17.43;47.16;96736.56;6204048;28;20570;-42
2022/04/25 09:08:08;;;;;;;0.67;0.67;;;;;;;17.91;45.59;96733.16;6201466;28;20221;-43
2022/04/25 09:14:32;;;;;;;0.60;0.60;;;;;;;17.72;47.98;96751.66;6227837;28;20246;-42
2022/04/25 09:17:39;;;;;;;0.70;0.70;;;;;;;17.26;46.71;96770.63;6197525;28;20970;-42
2022/04/25 09:20:41;;;;;;;0.87;0.60;;;;;;;17.23;46.93;96742.50;6207565;28;20235;-44
2022/04/25 09:23:43;;;;;;;0.67;0.50;;;;;;;17.79;45.69;96744.53;6207245;28;20240;-42
2022/04/25 09:26:45;;;;;;;0.43;0.40;;;;;;;18.00;44.69;96742.69;6207346;28;20243;-43
2022/04/25 09:29:48;;;;;;;1.60;0.60;;;;;;;17.94;45.10;96746.13;6206178;28;20236;-43
2022/04/25 09:32:52;;;;;;;0.30;0.30;;;;;;;17.86;46.17;96754.28;6206902;28;20319;-43
2022/04/25 09:35:56;;;;;;;1.03;0.50;;;;;;;18.56;44.52;96761.41;6207167;28;20235;-43
2022/04/25 09:38:58;;;;;;;0.50;0.50;;;;;;;19.04;43.15;96759.66;6207210;28;20224;-42
2022/04/25 09:42:02;;;;;;;1.80;0.47;;;;;;;19.07;43.88;96777.97;6207351;28;20263;-44
2022/04/25 09:45:05;;;;;;;0.50;0.50;;;;;;;19.51;42.23;96808.84;6205969;28;20236;-44
2022/04/25 09:48:14;;;;;;;0.97;0.50;;;;;;;18.65;42.72;96786.16;6230807;28;20727;-44
2022/04/25 09:51:16;;;;;;;0.43;0.40;;;;;;;18.65;43.04;96789.66;6229110;28;20373;-44
2022/04/25 09:54:25;;;;;;;0.60;0.60;;;;;;;19.18;43.08;96776.56;6230683;28;20223;-42
2022/04/25 09:57:31;;;;;;;1.50;0.80;;;;;;;19.70;40.65;96780.50;6230771;28;20641;-43
2022/04/25 10:00:38;;;;;;;0.53;0.53;;;;;;;19.25;41.81;96782.81;6230153;28;20235;-42
2022/04/25 10:03:42;;;;;;;2.10;0.70;;;;;;;18.27;43.41;96775.75;6231031;28;20231;-43
2022/04/25 10:06:46;;;;;;;0.70;0.70;;;;;;;17.39;45.60;96802.78;6230591;28;20224;-44
2022/04/25 10:09:52;;;;;;;1.60;0.87;;;;;;;17.39;46.09;96791.28;6231040;28;20239;-43
2022/04/25 10:12:55;;;;;;;0.90;0.90;;;;;;;18.04;46.13;96777.84;6223753;28;20246;-42
2022/04/25 10:15:58;;;;;;;1.20;0.70;;;;;;;18.14;44.27;96786.34;6228993;28;20585;-44
2022/04/25 10:19:00;;;;;;;1.40;1.30;;;;;;;17.35;44.05;96804.19;6230891;28;20235;-45
2022/04/25 10:22:04;;;;;;;1.07;1.03;;;;;;;16.99;44.48;96804.13;6229812;28;20255;-45
2022/04/25 10:25:06;;;;;;;4.10;1.30;;;;;;;17.40;46.30;96787.59;6221706;28;20704;-43
2022/04/25 10:28:28;;;;;;;1.37;1.27;;;;;;;17.70;44.72;96805.22;6204366;28;20327;-43
2022/04/25 10:31:42;;;;;;;1.30;1.20;;;;;;;17.77;44.05;96792.75;6205013;28;20674;-45
2022/04/25 10:34:59;;;;;;;1.60;1.50;;;;;;;17.72;43.65;96799.69;6205697;28;20755;-42
2022/04/25 10:38:49;;;;;;;1.00;0.97;;;;;;;17.73;43.91;96788.84;6204952;28;20232;-44
2022/04/25 10:45:15;;;;;;;1.10;1.00;;;;;;;17.77;44.19;96797.31;6205736;28;20247;-44
2022/04/25 10:48:17;;;;;;;1.70;1.60;;;;;;;18.25;42.38;96801.88;6230188;28;20265;-44
2022/04/25 10:51:37;;;;;;;1.50;1.40;;;;;;;19.03;42.16;96800.78;6229287;28;20270;-44
2022/04/25 10:54:54;;;;;;;1.70;1.60;;;;;;;19.58;41.71;96807.03;6215808;28;20228;-42
2022/04/25 10:58:02;;;;;;;1.87;1.77;;;;;;;18.52;38.55;96807.41;6222182;28;20236;-43
2022/04/25 11:01:05;;;;;;;1.70;1.60;;;;;;;17.98;41.41;96813.31;6204761;28;20232;-42
2022/04/25 11:04:13;;;;;;;2.53;1.70;;;;;;;17.59;43.01;96825.19;6204872;28;20228;-42
2022/04/25 11:07:22;;;;;;;3.13;2.13;;;;;;;17.27;43.20;96831.75;6204975;28;20251;-42
2022/04/25 11:10:45;;;;;;;2.20;2.03;;;;;;;17.36;42.18;96818.34;6204421;28;20268;-42
2022/04/25 11:14:01;;;;;;;1.87;1.67;;;;;;;17.56;42.81;96828.25;6204806;28;20240;-42
2022/04/25 11:17:13;;;;;;;1.97;1.87;;;;;;;18.03;40.64;96825.09;6205154;28;20274;-44
2022/04/25 11:20:54;;;;;;;2.67;1.90;;;;;;;18.98;39.59;96829.97;6204379;28;20311;-43
2022/04/25 11:23:59;;;;;;;2.00;1.90;;;;;;;19.12;38.96;96826.34;6203999;28;20228;-43
2022/04/25 11:27:05;;;;;;;2.20;1.87;;;;;;;19.76;37.66;96842.13;6228114;28;20232;-44
2022/04/25 11:30:16;;;;;;;1.90;1.80;;;;;;;20.03;37.77;96844.84;6203837;28;20235;-44
2022/04/25 11:33:18;;;;;;;1.70;1.60;;;;;;;19.25;38.71;96846.19;6203816;28;20295;-42
2022/04/25 11:36:21;;;;;;;2.80;2.30;;;;;;;18.93;37.18;96853.81;6203737;28;20303;-42
2022/04/25 11:42:45;;;;;;;3.40;2.70;;;;;;;17.31;41.36;96851.72;6204127;28;20240;-42
2022/04/25 11:45:47;;;;;;;3.23;2.00;;;;;;;17.51;41.26;96854.66;6202409;28;20708;-43
2022/04/25 11:48:50;;;;;;;1.67;1.57;;;;;;;17.73;41.64;96866.25;6204234;28;20258;-44
2022/04/25 11:51:53;;;;;;;2.70;1.90;;;;;;;18.38;41.58;96876.75;6203610;28;20673;-44
2022/04/25 11:54:55;;;;;;;2.03;1.83;;;;;;;19.11;39.07;96851.44;6187213;28;20243;-43
2022/04/25 11:57:57;;;;;;;2.53;1.97;;;;;;;19.81;37.58;96852.22;6203837;28;20239;-42
2022/04/25 12:01:00;;;;;;;2.00;1.80;;;;;;;20.08;37.61;96885.25;6203320;28;20712;-42
2022/04/25 12:04:28;;;;;;;2.40;2.20;;;;;;;19.43;37.23;96852.66;6203777;28;20325;-44
2022/04/25 12:07:30;;;;;;;2.17;1.97;;;;;;;19.09;37.40;96853.50;6203305;28;20600;-43
2022/04/25 12:17:14;;;;;;;1.83;1.70;;;;;;;18.93;37.83;96847.63;6204993;28;20233;-43
2022/04/25 12:20:19;;;;;;;4.20;2.13;;;;;;;19.24;37.67;96872.09;6217647;28;20242;-42
2022/04/25 12:23:24;;;;;;;2.67;2.07;;;;;;;19.85;37.87;96854.28;6209573;28;20573;-43
2022/04/25 12:26:32;;;;;;;2.30;2.00;;;;;;;19.56;37.45;96861.81;6209903;28;20735;-42
2022/04/25 12:29:34;;;;;;;2.10;1.90;;;;;;;20.11;36.66;96863.41;6203613;28;20706;-43
2022/04/25 12:32:36;;;;;;;2.20;2.00;;;;;;;20.72;34.10;96858.75;6203846;28;20266;-42
2022/04/25 12:35:39;;;;;;;2.60;2.40;;;;;;;19.65;35.65;96887.38;6202915;28;20228;-44
2022/04/25 12:38:50;;;;;;;3.07;2.33;;;;;;;18.77;39.01;96891.50;6203283;28;20228;-43
2022/04/25 12:41:57;;;;;;;2.40;2.20;;;;;;;18.32;40.84;96912.28;6203535;28;20248;-43
2022/04/25 12:44:59;;;;;;;3.43;2.50;;;;;;;17.88;42.09;96936.41;6207380;28;20715;-46
2022/04/25 12:48:04;;;;;;;2.53;2.33;;;;;;;17.41;43.34;96918.13;6212623;28;20235;-44
2022/04/25 12:51:06;;;;;;;4.17;2.40;;;;;;;17.50;44.45;96921.53;6231471;28;20578;-42
2022/04/25 12:54:37;;;;;;;3.17;2.20;;;;;;;18.97;40.69;96921.91;6219076;28;20243;-43
2022/04/25 12:57:50;;;;;;;2.03;1.83;;;;;;;18.97;40.84;96916.56;6226768;28;20247;-44
2022/04/25 13:00:52;;;;;;;2.30;2.10;;;;;;;18.40;41.10;96919.31;6207774;28;20236;-43
2022/04/25 13:04:17;;;;;;;3.67;2.70;;;;;;;19.00;40.48;96908.16;6207358;28;20243;-43
2022/04/25 13:07:20;;;;;;;2.03;1.90;;;;;;;19.60;39.95;96919.25;6207854;28;20236;-43
2022/04/25 13:10:24;;;;;;;1.97;1.87;;;;;;;19.53;40.46;96916.56;6207524;28;20854;-44
2022/04/25 13:13:27;;;;;;;3.13;2.23;;;;;;;20.18;39.49;96912.47;6206990;28;20771;-43
2022/04/25 13:16:30;;;;;;;3.40;3.10;;;;;;;20.59;37.72;96912.38;6207446;28;20248;-43
2022/04/25 13:19:36;;;;;;;2.83;2.63;;;;;;;21.47;37.29;96908.41;6207962;28;20330;-43
2022/04/25 13:22:38;;;;;;;2.87;2.67;;;;;;;22.07;35.13;96903.69;6220155;28;20605;-45
2022/04/25 13:25:40;;;;;;;3.27;2.97;;;;;;;22.12;34.61;96909.25;6231330;28;20266;-44
2022/04/25 13:28:43;;;;;;;2.80;2.60;;;;;;;21.20;35.62;96920.25;6231583;28;20239;-44
2022/04/25 13:31:45;;;;;;;3.13;2.60;;;;;;;20.85;36.57;96914.28;6216996;28;20251;-44
2022/04/25 13:34:47;;;;;;;2.93;2.73;;;;;;;20.82;36.05;96920.03;6207776;28;20318;-44
2022/04/25 13:37:50;;;;;;;3.10;2.90;;;;;;;20.75;37.14;96919.22;6207211;28;20594;-42
2022/04/25 13:40:52;;;;;;;3.40;3.10;;;;;;;20.82;36.56;96941.50;6206667;28;20312;-44
2022/04/25 13:43:54;;;;;;;3.80;3.40;;;;;;;19.78;38.03;96936.44;6204855;28;20687;-44
2022/04/25 13:46:57;;;;;;;3.37;3.07;;;;;;;19.48;39.40;96943.91;6207375;28;20704;-41
2022/04/25 13:49:59;;;;;;;2.87;2.67;;;;;;;19.41;40.25;96950.22;6206298;28;20228;-44
2022/04/25 13:53:02;;;;;;;3.00;2.77;;;;;;;18.99;40.64;96948.47;6207068;28;20696;-43
2022/04/25 13:56:09;;;;;;;3.13;2.83;;;;;;;18.28;41.93;96952.91;6205326;28;20235;-42
2022/04/25 13:59:11;;;;;;;3.13;2.90;;;;;;;19.86;38.79;96957.69;6206527;28;20704;-42
2022/04/25 14:05:44;;;;;;;3.10;2.80;;;;;;;26.93;26.73;96932.16;6206470;28;20232;-43
2022/04/25 14:08:46;;;;;;;3.63;2.37;;;;;;;28.65;24.73;96931.84;6207419;28;20233;-44
2022/04/25 14:11:48;;;;;;;2.67;2.47;;;;;;;29.68;23.06;96939.81;6205768;28;20596;-44
2022/04/25 14:14:50;;;;;;;3.00;2.80;;;;;;;28.17;23.44;96940.81;6223987;28;20302;-43
2022/04/25 14:17:53;;;;;;;3.03;2.80;;;;;;;29.61;22.98;96937.34;6206680;28;20232;-48
2022/04/25 14:20:55;;;;;;;3.23;2.93;;;;;;;30.67;22.13;96936.19;6205620;28;20228;-42
2022/04/25 14:23:57;;;;;;;2.97;2.77;;;;;;;29.21;22.60;96950.59;6206016;28;20228;-44
2022/04/25 14:26:59;;;;;;;5.13;3.53;;;;;;;25.63;27.05;96948.19;6206074;28;20235;-42
2022/04/25 14:30:01;;;;;;;4.13;3.23;;;;;;;22.67;31.56;96950.69;6227669;28;20239;-42
2022/04/25 14:33:03;;;;;;;4.93;3.47;;;;;;;20.85;34.98;96946.47;6206283;28;20843;-42
2022/04/25 14:36:06;;;;;;;3.47;3.17;;;;;;;19.95;37.37;96946.81;6204777;28;20303;-43
2022/04/25 14:39:08;;;;;;;2.87;2.67;;;;;;;19.27;39.36;96949.28;6207147;28;20559;-43
2022/04/25 14:42:10;;;;;;;2.87;2.67;;;;;;;21.26;36.11;96939.03;6228266;28;20200;-42
2022/04/25 14:45:12;;;;;;;4.57;3.30;;;;;;;21.33;35.36;96947.09;6229830;28;20200;-42
2022/04/25 14:48:17;;;;;;;5.43;3.57;;;;;;;22.15;32.77;96941.09;6229467;28;20615;-42
2022/04/25 14:54:40;;;;;;;3.73;3.43;;;;;;;22.64;33.26;96953.03;6217006;28;20817;-41
2022/04/25 14:57:42;;;;;;;4.17;3.77;;;;;;;22.12;33.75;96954.13;6223822;28;20240;-42
2022/04/25 15:00:45;;;;;;;4.63;3.30;;;;;;;22.70;32.67;96958.34;6204936;28;20244;-43
2022/04/25 15:03:47;;;;;;;3.70;3.40;;;;;;;20.42;35.03;96948.66;6204509;28;20578;-43
2022/04/25 15:06:49;;;;;;;3.90;3.50;;;;;;;21.53;33.59;96963.97;6203410;28;20244;-42
2022/04/25 15:09:52;;;;;;;5.77;4.30;;;;;;;19.79;35.57;96975.59;6205612;28;20751;-43
2022/04/25 15:12:54;;;;;;;3.57;3.30;;;;;;;18.35;37.72;96972.50;6204219;28;20258;-45
2022/04/25 15:15:57;;;;;;;3.50;3.20;;;;;;;17.71;39.52;96967.00;6204123;28;20236;-44
2022/04/25 15:19:01;;;;;;;3.53;3.27;;;;;;;17.31;40.07;96981.59;6204575;28;20262;-44